Time;durP1;ratioP1;P1;durP2;ratioP2;P2;SDS_P1;SDS_P2;PMS_P1;PMS_P2;Temp;Humidity;BMP_temperature;BMP_pressure;BME280_temperature;BME280_humidity;BME280_pressure;Samples;Min_cycle;Max_cycle;Signal;HPM_P1;HPM_P2
2023/11/12 05:30:45;;;;;;;0.10;0.10;;;12.30;91.20;;;;;;5814693;23;20041;-76
2023/11/12 05:33:10;;;;;;;0.20;0.20;;;12.20;90.90;;;;;;5031269;28;20108;-76
2023/11/12 05:35:36;;;;;;;0.10;0.10;;;12.30;90.80;;;;;;5036731;28;20112;-76
2023/11/12 05:38:02;;;;;;;0.20;0.20;;;12.20;91.00;;;;;;5036774;28;20443;-76
2023/11/12 05:40:29;;;;;;;0.10;0.10;;;12.20;90.90;;;;;;5030983;28;20062;-76
2023/11/12 05:42:54;;;;;;;0.20;0.20;;;12.10;90.80;;;;;;5016747;28;20476;-76
2023/11/12 05:45:20;;;;;;;0.20;0.20;;;12.10;90.70;;;;;;5016064;28;20029;-76
2023/11/12 05:47:46;;;;;;;0.10;0.10;;;12.10;90.90;;;;;;5017254;28;20046;-76
2023/11/12 05:50:12;;;;;;;0.20;0.20;;;12.00;91.00;;;;;;5028529;28;20025;-76
2023/11/12 05:52:38;;;;;;;0.10;0.10;;;12.00;90.90;;;;;;5016956;28;20053;-76
2023/11/12 05:55:04;;;;;;;0.20;0.20;;;12.00;90.90;;;;;;5016725;28;20101;-76
2023/11/12 05:57:29;;;;;;;0.10;0.10;;;11.90;90.80;;;;;;5016804;28;20030;-76
2023/11/12 05:59:55;;;;;;;0.20;0.20;;;11.90;90.70;;;;;;5015318;28;20484;-76
2023/11/12 06:02:21;;;;;;;0.10;0.10;;;11.90;90.60;;;;;;5027300;28;20099;-76
2023/11/12 06:04:46;;;;;;;0.17;0.17;;;11.90;90.80;;;;;;5016858;28;20484;-76
2023/11/12 06:07:12;;;;;;;0.25;0.20;;;11.90;90.90;;;;;;5031244;28;20453;-76
2023/11/12 06:09:37;;;;;;;0.20;0.20;;;11.90;91.00;;;;;;5036551;28;20496;-76
2023/11/12 06:12:05;;;;;;;0.10;0.10;;;11.90;91.00;;;;;;5036415;28;20049;-76
2023/11/12 06:14:30;;;;;;;0.17;0.17;;;11.90;91.00;;;;;;5025915;28;20093;-76
2023/11/12 06:16:56;;;;;;;0.10;0.10;;;12.00;91.00;;;;;;5024867;28;20049;-76
2023/11/12 06:19:22;;;;;;;0.20;0.20;;;12.00;91.00;;;;;;5018060;28;20396;-76
2023/11/12 06:21:47;;;;;;;0.13;0.13;;;12.00;91.00;;;;;;4999263;28;20069;-76
2023/11/12 06:24:13;;;;;;;0.20;0.20;;;12.00;91.00;;;;;;5015213;28;20026;-76
2023/11/12 06:26:38;;;;;;;0.20;0.20;;;12.00;90.90;;;;;;5016372;28;20026;-76
2023/11/12 06:29:04;;;;;;;0.20;0.20;;;12.00;90.70;;;;;;5016487;28;20041;-76
2023/11/12 06:31:29;;;;;;;0.20;0.20;;;12.10;90.80;;;;;;5015509;28;20052;-76
2023/11/12 06:33:55;;;;;;;0.17;0.17;;;12.10;90.80;;;;;;5016360;28;20362;-76
2023/11/12 06:36:21;;;;;;;0.20;0.20;;;12.00;90.80;;;;;;5015373;28;20029;-76
2023/11/12 06:38:46;;;;;;;0.10;0.10;;;12.00;90.90;;;;;;5016575;28;20392;-76
2023/11/12 06:41:12;;;;;;;0.10;0.10;;;12.00;90.90;;;;;;5018781;28;20017;-76
2023/11/12 06:43:38;;;;;;;0.10;0.10;;;12.00;91.00;;;;;;5017002;28;20089;-76
2023/11/12 06:46:07;;;;;;;0.17;0.10;;;12.00;91.10;;;;;;5016296;28;20065;-76
2023/11/12 06:48:33;;;;;;;0.20;0.20;;;12.00;91.10;;;;;;5016393;28;20416;-76
2023/11/12 06:50:59;;;;;;;0.10;0.10;;;12.00;91.10;;;;;;5016556;28;20029;-76
2023/11/12 06:53:24;;;;;;;0.10;0.10;;;12.00;91.10;;;;;;5015435;28;20030;-76
2023/11/12 06:55:51;;;;;;;0.20;0.20;;;12.00;91.30;;;;;;5016648;28;20377;-76
2023/11/12 06:58:17;;;;;;;0.20;0.20;;;12.00;91.30;;;;;;5023704;28;20034;-79
2023/11/12 07:00:43;;;;;;;0.20;0.20;;;12.00;91.30;;;;;;5016409;28;20408;-78
2023/11/12 07:03:09;;;;;;;0.10;0.10;;;12.00;91.50;;;;;;5018380;28;20054;-77
2023/11/12 07:05:34;;;;;;;0.10;0.10;;;12.10;91.50;;;;;;5019944;28;20562;-77
2023/11/12 07:08:00;;;;;;;0.10;0.10;;;12.20;91.50;;;;;;5020224;28;20025;-78
2023/11/12 07:10:26;;;;;;;0.10;0.10;;;12.20;91.30;;;;;;5039882;28;20029;-79
2023/11/12 07:12:51;;;;;;;0.10;0.10;;;12.20;91.20;;;;;;5024231;28;20109;-78
2023/11/12 07:15:17;;;;;;;0.38;0.20;;;12.20;91.10;;;;;;5019474;28;20029;-79
2023/11/12 07:17:47;;;;;;;0.10;0.10;;;12.20;91.10;;;;;;5030748;28;20025;-79
2023/11/12 07:20:13;;;;;;;0.20;0.20;;;12.10;91.00;;;;;;5019431;28;20025;-81
2023/11/12 07:22:39;;;;;;;0.10;0.10;;;12.10;91.00;;;;;;5019402;28;20022;-78
2023/11/12 07:25:05;;;;;;;0.10;0.10;;;12.10;91.00;;;;;;5017842;28;20030;-85
2023/11/12 07:27:31;;;;;;;0.10;0.10;;;12.20;90.90;;;;;;5019001;28;20440;-86
2023/11/12 07:29:58;;;;;;;0.20;0.20;;;12.10;90.90;;;;;;5017761;28;20014;-82
2023/11/12 07:32:23;;;;;;;0.25;0.20;;;12.10;90.90;;;;;;5001315;28;20068;-79
2023/11/12 07:34:49;;;;;;;0.20;0.20;;;12.10;90.80;;;;;;5019501;28;20391;-84
2023/11/12 07:37:14;;;;;;;0.28;0.20;;;12.10;90.80;;;;;;5037580;28;20017;-80
2023/11/12 07:39:40;;;;;;;0.03;0.03;;;12.10;90.70;;;;;;5038080;28;20022;-80
2023/11/12 07:42:06;;;;;;;0.10;0.10;;;12.10;90.80;;;;;;5036438;28;20013;-86
2023/11/12 07:44:32;;;;;;;0.10;0.10;;;12.20;90.70;;;;;;5038415;28;20377;-79
2023/11/12 07:46:58;;;;;;;0.20;0.20;;;12.20;90.60;;;;;;5038347;28;20017;-91
2023/11/12 07:49:23;;;;;;;0.20;0.20;;;12.20;90.60;;;;;;5036976;28;20041;-84
2023/11/12 07:51:51;;;;;;;0.20;0.20;;;12.20;90.60;;;;;;5038768;28;20447;-88
2023/11/12 07:54:17;;;;;;;0.10;0.10;;;12.20;90.60;;;;;;5025257;28;20112;-84
2023/11/12 07:56:43;;;;;;;0.20;0.20;;;12.20;90.60;;;;;;5018895;28;20032;-84
2023/11/12 07:59:08;;;;;;;0.20;0.20;;;12.20;90.60;;;;;;5018480;28;20034;-81
2023/11/12 08:01:35;;;;;;;0.20;0.20;;;12.20;90.50;;;;;;5020542;28;20032;-84
2023/11/12 08:04:00;;;;;;;0.20;0.17;;;12.30;90.50;;;;;;5019574;28;20032;-86
2023/11/12 08:06:26;;;;;;;0.20;0.20;;;12.30;90.30;;;;;;5019764;28;20624;-85
2023/11/12 08:08:53;;;;;;;0.20;0.20;;;12.30;90.30;;;;;;5016122;28;20021;-85
2023/11/12 08:11:18;;;;;;;0.17;0.17;;;12.40;90.20;;;;;;5022265;28;20047;-85
2023/11/12 08:13:44;;;;;;;0.20;0.20;;;12.50;89.90;;;;;;5040024;28;20116;-85
2023/11/12 08:16:10;;;;;;;0.20;0.20;;;12.70;89.80;;;;;;5036881;28;20029;-85
2023/11/12 08:18:36;;;;;;;0.20;0.20;;;12.70;89.90;;;;;;5019970;28;20097;-85
2023/11/12 08:21:02;;;;;;;0.20;0.20;;;12.80;89.20;;;;;;5018900;28;20136;-83
2023/11/12 08:23:28;;;;;;;0.15;0.15;;;12.80;89.60;;;;;;5028525;28;20029;-82
2023/11/12 08:25:54;;;;;;;0.20;0.20;;;12.80;89.30;;;;;;5027824;28;20530;-84
2023/11/12 08:28:23;;;;;;;0.20;0.20;;;12.90;89.30;;;;;;5018257;28;20022;-82
2023/11/12 08:30:49;;;;;;;0.15;0.15;;;12.90;89.20;;;;;;5017970;28;20095;-87
2023/11/12 08:33:14;;;;;;;0.20;0.20;;;13.00;89.20;;;;;;5037253;28;20061;-84
2023/11/12 08:35:40;;;;;;;0.20;0.20;;;13.00;89.30;;;;;;5032972;28;20029;-88
2023/11/12 08:38:06;;;;;;;0.15;0.15;;;13.00;89.00;;;;;;5037441;28;20022;-88
2023/11/12 08:40:32;;;;;;;0.22;0.20;;;13.00;88.80;;;;;;5015497;28;20026;-91
2023/11/12 08:42:58;;;;;;;0.20;0.20;;;13.10;88.80;;;;;;5015247;28;20034;-87
2023/11/12 08:45:24;;;;;;;0.20;0.20;;;13.10;88.90;;;;;;5030535;28;20910;-88
2023/11/12 08:47:50;;;;;;;0.20;0.20;;;13.10;88.90;;;;;;5019290;28;20056;-86
2023/11/12 08:50:15;;;;;;;0.10;0.10;;;13.10;88.70;;;;;;5019430;28;20048;-86
2023/11/12 08:52:41;;;;;;;0.10;0.10;;;13.10;88.80;;;;;;5032748;28;20084;-83
2023/11/12 08:55:07;;;;;;;0.10;0.10;;;13.20;88.40;;;;;;5032065;28;20096;-86
2023/11/12 08:57:33;;;;;;;0.15;0.15;;;13.20;88.30;;;;;;5018143;28;20086;-81
2023/11/12 08:59:59;;;;;;;0.10;0.10;;;13.20;88.40;;;;;;5018743;28;20025;-86
2023/11/12 09:02:24;;;;;;;0.20;0.20;;;13.20;88.40;;;;;;5013907;28;20503;-85
2023/11/12 09:04:50;;;;;;;0.13;0.13;;;13.30;88.30;;;;;;5016278;28;20423;-86
2023/11/12 09:07:15;;;;;;;0.10;0.10;;;13.30;88.30;;;;;;5012964;28;20053;-86
2023/11/12 09:09:41;;;;;;;0.20;0.20;;;13.30;88.10;;;;;;5014151;28;20024;-86
2023/11/12 09:12:07;;;;;;;0.17;0.17;;;13.30;88.10;;;;;;5030420;28;20033;-86
2023/11/12 09:14:32;;;;;;;0.10;0.10;;;13.30;88.10;;;;;;5012471;28;20083;-86
2023/11/12 09:16:58;;;;;;;0.20;0.20;;;13.40;88.10;;;;;;5018171;28;20022;-85
2023/11/12 09:19:24;;;;;;;0.20;0.20;;;13.40;88.10;;;;;;5036070;28;20130;-86
2023/11/12 09:21:50;;;;;;;0.10;0.10;;;13.50;87.90;;;;;;5030301;28;20164;-86
2023/11/12 09:24:15;;;;;;;0.20;0.20;;;13.50;87.50;;;;;;5017696;28;20026;-86
2023/11/12 09:26:42;;;;;;;0.30;0.20;;;13.50;87.70;;;;;;5035736;28;20029;-86
2023/11/12 09:29:08;;;;;;;0.10;0.10;;;13.60;88.00;;;;;;5016244;28;20029;-86
2023/11/12 09:31:33;;;;;;;0.20;0.20;;;13.60;87.50;;;;;;5036434;28;20487;-90
2023/11/12 09:33:59;;;;;;;0.20;0.20;;;13.60;87.30;;;;;;5024686;28;20033;-89
2023/11/12 09:36:24;;;;;;;0.10;0.10;;;13.60;86.70;;;;;;5014491;28;20095;-90
2023/11/12 09:38:50;;;;;;;0.10;0.10;;;13.70;87.10;;;;;;5033475;28;20078;-88
2023/11/12 09:41:21;;;;;;;0.20;0.20;;;13.70;87.00;;;;;;5015378;28;20041;-88
2023/11/12 09:43:48;;;;;;;0.10;0.10;;;13.70;87.20;;;;;;5017653;28;20104;-88
2023/11/12 09:46:17;;;;;;;0.10;0.10;;;13.70;87.20;;;;;;5015746;28;20025;-87
2023/11/12 09:48:42;;;;;;;0.10;0.10;;;13.70;86.90;;;;;;5015678;28;20018;-88
2023/11/12 09:51:12;;;;;;;0.10;0.10;;;13.60;86.70;;;;;;5016086;28;20021;-89
2023/11/12 09:53:40;;;;;;;0.15;0.15;;;13.70;86.60;;;;;;5032662;28;20030;-88
2023/11/12 09:56:09;;;;;;;0.20;0.20;;;13.60;86.60;;;;;;5022814;28;20540;-89
2023/11/12 09:58:42;;;;;;;0.10;0.10;;;13.60;86.90;;;;;;5022834;28;20037;-87
2023/11/12 10:01:11;;;;;;;0.10;0.10;;;13.50;86.70;;;;;;5010293;28;20353;-89
2023/11/12 10:03:38;;;;;;;0.10;0.10;;;13.50;86.90;;;;;;5028620;28;20783;-82
2023/11/12 10:06:05;;;;;;;0.10;0.10;;;13.60;87.10;;;;;;5010447;28;20049;-84
2023/11/12 10:08:34;;;;;;;0.10;0.10;;;13.50;86.90;;;;;;5032517;28;20029;-80
2023/11/12 10:11:17;;;;;;;0.20;0.20;;;13.60;86.80;;;;;;5013147;28;20872;-88
2023/11/12 10:13:43;;;;;;;0.10;0.10;;;13.70;86.90;;;;;;5023872;28;20087;-86
2023/11/12 10:16:29;;;;;;;0.10;0.10;;;13.70;86.90;;;;;;5028232;28;20037;-86
2023/11/12 10:19:15;;;;;;;0.10;0.10;;;13.70;86.90;;;;;;5013555;28;20033;-87
2023/11/12 10:22:01;;;;;;;0.20;0.20;;;13.70;86.90;;;;;;5013418;28;20407;-87
2023/11/12 10:24:28;;;;;;;0.17;0.17;;;13.70;86.80;;;;;;5015586;28;20048;-88
2023/11/12 10:26:57;;;;;;;0.20;0.20;;;13.70;86.70;;;;;;5027915;28;20388;-88
2023/11/12 10:29:23;;;;;;;0.20;0.20;;;13.70;86.80;;;;;;5030974;28;20022;-87
2023/11/12 10:31:49;;;;;;;0.15;0.15;;;13.70;86.90;;;;;;5012644;28;20045;-88
2023/11/12 10:34:19;;;;;;;0.20;0.20;;;13.70;86.90;;;;;;5032458;28;20500;-85
2023/11/12 10:37:14;;;;;;;0.20;0.10;;;13.70;86.90;;;;;;5028562;28;20076;-87
2023/11/12 10:39:43;;;;;;;0.10;0.10;;;13.70;86.80;;;;;;5002862;28;20029;-88
2023/11/12 10:42:26;;;;;;;0.10;0.10;;;13.70;87.30;;;;;;5002101;28;20061;-87
2023/11/12 10:44:55;;;;;;;0.20;0.20;;;13.70;87.30;;;;;;5004119;28;20511;-88
2023/11/12 10:47:26;;;;;;;0.10;0.10;;;13.70;87.00;;;;;;5020093;28;20021;-82
2023/11/12 10:49:52;;;;;;;0.20;0.20;;;13.60;87.30;;;;;;5020514;28;20034;-86
2023/11/12 10:52:19;;;;;;;0.20;0.20;;;13.60;87.30;;;;;;5029541;28;20479;-84
2023/11/12 10:54:45;;;;;;;0.20;0.20;;;13.70;87.30;;;;;;5039462;28;20084;-84
2023/11/12 10:57:13;;;;;;;0.10;0.10;;;13.70;87.50;;;;;;5017339;28;20391;-85
2023/11/12 10:59:40;;;;;;;0.20;0.20;;;13.70;87.60;;;;;;5021260;28;20037;-83
2023/11/12 11:02:19;;;;;;;0.20;0.20;;;13.70;87.60;;;;;;5014272;28;20026;-85
2023/11/12 11:04:45;;;;;;;0.20;0.20;;;13.80;87.90;;;;;;5014941;28;20504;-87
2023/11/12 11:07:16;;;;;;;0.15;0.15;;;13.80;87.90;;;;;;5038953;28;20025;-87
2023/11/12 11:09:42;;;;;;;0.20;0.20;;;13.90;87.90;;;;;;5021048;28;20454;-87
2023/11/12 11:12:09;;;;;;;0.10;0.10;;;13.90;88.10;;;;;;5038254;28;20028;-87
2023/11/12 11:14:35;;;;;;;0.20;0.20;;;13.90;88.10;;;;;;5024304;28;20113;-87
2023/11/12 11:17:01;;;;;;;0.20;0.20;;;13.90;88.30;;;;;;5015322;28;20056;-88
2023/11/12 11:19:45;;;;;;;0.20;0.20;;;14.00;88.20;;;;;;5008155;28;20918;-85
2023/11/12 11:22:23;;;;;;;0.10;0.10;;;13.90;88.50;;;;;;5018100;28;20041;-85
2023/11/12 11:24:51;;;;;;;0.20;0.20;;;14.00;88.50;;;;;;5019598;28;20092;-87
2023/11/12 11:27:19;;;;;;;0.20;0.20;;;14.00;88.60;;;;;;5001576;28;20014;-87
2023/11/12 11:30:16;;;;;;;0.20;0.20;;;14.00;88.60;;;;;;5004602;28;20752;-87
2023/11/12 11:32:54;;;;;;;0.20;0.20;;;13.90;88.70;;;;;;4992508;28;20054;-87
2023/11/12 11:35:27;;;;;;;0.20;0.20;;;13.90;88.80;;;;;;5002102;28;20033;-87
2023/11/12 11:38:12;;;;;;;0.13;0.13;;;13.80;88.90;;;;;;5001780;28;20052;-87
2023/11/12 11:40:40;;;;;;;0.20;0.20;;;13.90;88.80;;;;;;5031258;28;20103;-87
2023/11/12 11:43:24;;;;;;;0.25;0.20;;;13.90;89.00;;;;;;5021023;28;20034;-87
2023/11/12 11:46:10;;;;;;;0.15;0.15;;;13.90;88.90;;;;;;5021556;28;20056;-88
2023/11/12 11:48:40;;;;;;;0.10;0.10;;;14.00;89.00;;;;;;5020099;28;20033;-86
2023/11/12 11:51:27;;;;;;;0.20;0.20;;;14.10;88.90;;;;;;5017945;28;20488;-87
2023/11/12 11:53:56;;;;;;;0.13;0.13;;;14.10;88.70;;;;;;5019165;28;20026;-88
2023/11/12 11:56:26;;;;;;;0.20;0.20;;;14.30;88.80;;;;;;5032316;28;20026;-86
2023/11/12 11:58:52;;;;;;;0.20;0.20;;;14.50;88.60;;;;;;5016793;28;20034;-88
2023/11/12 12:01:19;;;;;;;0.30;0.20;;;14.60;88.50;;;;;;5018725;28;20469;-86
2023/11/12 12:03:45;;;;;;;0.20;0.20;;;14.70;88.30;;;;;;5018924;28;20044;-86
2023/11/12 12:06:17;;;;;;;0.30;0.28;;;14.70;88.20;;;;;;5018486;28;20480;-88
2023/11/12 12:08:55;;;;;;;0.20;0.20;;;14.70;88.10;;;;;;5001160;28;20132;-85
2023/11/12 12:11:22;;;;;;;0.20;0.20;;;14.80;88.10;;;;;;5018576;28;20492;-87
2023/11/12 12:13:54;;;;;;;0.15;0.15;;;14.80;88.00;;;;;;5018681;28;20037;-87
2023/11/12 12:16:30;;;;;;;0.35;0.30;;;14.90;88.00;;;;;;5025321;28;20018;-87
2023/11/12 12:18:56;;;;;;;0.20;0.20;;;14.90;87.90;;;;;;5018225;28;20030;-88
2023/11/12 12:21:22;;;;;;;0.13;0.13;;;15.00;87.90;;;;;;5018737;28;20461;-88
2023/11/12 12:23:48;;;;;;;0.20;0.20;;;15.00;87.90;;;;;;5001048;28;20447;-86
2023/11/12 12:26:15;;;;;;;0.20;0.20;;;15.00;87.80;;;;;;5018331;28;20057;-87
2023/11/12 12:28:44;;;;;;;0.10;0.10;;;15.00;87.80;;;;;;5013307;28;20044;-86
2023/11/12 12:31:09;;;;;;;0.20;0.20;;;14.90;87.70;;;;;;5017324;28;20060;-86
2023/11/12 12:33:36;;;;;;;0.20;0.20;;;14.90;87.90;;;;;;5006255;28;20037;-87
2023/11/12 12:36:13;;;;;;;0.20;0.20;;;14.90;88.00;;;;;;5018362;28;20053;-89
2023/11/12 12:38:55;;;;;;;0.20;0.20;;;14.90;88.20;;;;;;5014461;28;20061;-88
2023/11/12 12:41:20;;;;;;;0.20;0.20;;;14.90;88.00;;;;;;5015485;28;20025;-86
2023/11/12 12:43:50;;;;;;;0.20;0.20;;;14.80;88.00;;;;;;5020138;28;20025;-88
2023/11/12 12:46:16;;;;;;;0.20;0.20;;;14.80;88.20;;;;;;5019226;28;20056;-86
2023/11/12 12:48:53;;;;;;;0.25;0.20;;;14.80;88.60;;;;;;5019974;28;20026;-89
2023/11/12 12:51:19;;;;;;;0.15;0.15;;;14.80;88.70;;;;;;5020013;28;20400;-88
2023/11/12 12:53:45;;;;;;;0.10;0.10;;;14.70;88.70;;;;;;5004783;28;20400;-87
2023/11/12 12:56:13;;;;;;;0.20;0.20;;;14.70;88.80;;;;;;4999983;28;20041;-88
2023/11/12 12:58:40;;;;;;;0.20;0.20;;;14.70;88.90;;;;;;5016085;28;20030;-88
2023/11/12 13:01:08;;;;;;;0.20;0.20;;;14.70;89.10;;;;;;5019137;28;20020;-87
2023/11/12 13:03:41;;;;;;;0.20;0.20;;;14.70;89.30;;;;;;5015383;28;20026;-87
2023/11/12 13:06:10;;;;;;;0.10;0.10;;;14.70;89.30;;;;;;4999893;28;20040;-88
2023/11/12 13:08:36;;;;;;;0.20;0.20;;;14.80;89.50;;;;;;5017447;28;20049;-88
2023/11/12 13:11:01;;;;;;;0.10;0.10;;;14.80;89.60;;;;;;5017498;28;20049;-89
2023/11/12 13:13:30;;;;;;;0.17;0.17;;;14.80;89.60;;;;;;5017641;28;20108;-89
2023/11/12 13:15:57;;;;;;;0.17;0.17;;;14.70;89.80;;;;;;5017556;28;20480;-89
2023/11/12 13:18:23;;;;;;;0.32;0.20;;;14.70;89.80;;;;;;5006148;28;20511;-87
2023/11/12 13:20:51;;;;;;;0.20;0.20;;;14.70;90.10;;;;;;5000366;28;20022;-89
2023/11/12 13:23:19;;;;;;;0.20;0.20;;;14.70;90.20;;;;;;5000041;28;20495;-87
2023/11/12 13:25:49;;;;;;;0.10;0.10;;;14.70;90.20;;;;;;4999778;28;20037;-88
2023/11/12 13:28:16;;;;;;;0.20;0.20;;;14.80;90.20;;;;;;4999759;28;20113;-89
2023/11/12 13:30:47;;;;;;;0.20;0.20;;;14.80;90.00;;;;;;4999217;28;20057;-89
2023/11/12 13:33:13;;;;;;;0.10;0.10;;;14.90;90.20;;;;;;4999683;28;20022;-87
2023/11/12 13:35:39;;;;;;;0.17;0.17;;;14.90;90.10;;;;;;4999646;28;20488;-88
2023/11/12 13:38:05;;;;;;;0.10;0.10;;;14.80;90.20;;;;;;5015953;28;20098;-89
2023/11/12 13:40:30;;;;;;;0.10;0.10;;;14.80;90.30;;;;;;5010967;28;20030;-88
2023/11/12 13:42:57;;;;;;;0.10;0.10;;;14.90;90.30;;;;;;4999564;28;20396;-89
2023/11/12 13:45:22;;;;;;;0.20;0.20;;;14.80;90.30;;;;;;4999386;28;20477;-88
2023/11/12 13:47:48;;;;;;;0.20;0.20;;;14.80;90.50;;;;;;4999619;28;20056;-88
2023/11/12 13:50:16;;;;;;;0.13;0.13;;;14.80;90.50;;;;;;4999546;28;20038;-87
2023/11/12 13:52:46;;;;;;;0.10;0.10;;;14.80;90.50;;;;;;5017069;28;20022;-87
2023/11/12 13:55:17;;;;;;;0.20;0.20;;;14.80;90.60;;;;;;5015524;28;20034;-89
2023/11/12 13:57:47;;;;;;;0.10;0.10;;;14.80;90.60;;;;;;5011533;28;20483;-89
2023/11/12 14:00:15;;;;;;;0.20;0.20;;;14.80;90.70;;;;;;5019207;28;20021;-88
2023/11/12 14:02:41;;;;;;;0.10;0.10;;;14.80;90.70;;;;;;5019009;28;20018;-86
2023/11/12 14:05:08;;;;;;;0.10;0.10;;;14.80;90.80;;;;;;5034257;28;20100;-88
2023/11/12 14:07:43;;;;;;;0.10;0.10;;;14.90;90.80;;;;;;5017121;28;20014;-88
2023/11/12 14:10:10;;;;;;;0.20;0.15;;;14.90;90.80;;;;;;5016362;28;20084;-89
2023/11/12 14:12:37;;;;;;;0.10;0.10;;;14.90;90.80;;;;;;5019698;28;20022;-87
2023/11/12 14:15:05;;;;;;;0.10;0.10;;;14.90;90.70;;;;;;5019392;28;20036;-89
2023/11/12 14:17:33;;;;;;;0.10;0.10;;;14.90;90.80;;;;;;5029472;28;20380;-88
2023/11/12 14:19:59;;;;;;;0.15;0.15;;;14.90;90.80;;;;;;5003074;28;20123;-88
2023/11/12 14:22:27;;;;;;;0.20;0.20;;;14.90;90.90;;;;;;5020496;28;20033;-88
2023/11/12 14:24:53;;;;;;;0.10;0.10;;;14.90;90.90;;;;;;5019515;28;20044;-88
2023/11/12 14:27:18;;;;;;;0.10;0.10;;;14.90;90.90;;;;;;5002877;28;20026;-87
2023/11/12 14:29:44;;;;;;;0.10;0.10;;;14.90;90.90;;;;;;5018795;28;20120;-87
2023/11/12 14:32:12;;;;;;;0.10;0.10;;;14.90;91.00;;;;;;5020484;28;20053;-86
2023/11/12 14:34:38;;;;;;;0.10;0.10;;;14.90;91.10;;;;;;5020405;28;20083;-87
2023/11/12 14:37:04;;;;;;;0.20;0.20;;;14.90;91.10;;;;;;5003109;28;20392;-86
2023/11/12 14:39:29;;;;;;;0.20;0.20;;;14.90;91.10;;;;;;5020162;28;20029;-86
2023/11/12 14:41:55;;;;;;;0.17;0.10;;;15.10;91.10;;;;;;5008786;28;20550;-88
2023/11/12 14:44:21;;;;;;;0.10;0.10;;;15.10;90.90;;;;;;5020408;28;20026;-87
2023/11/12 14:46:47;;;;;;;0.10;0.10;;;15.10;90.90;;;;;;5002649;28;20392;-87
2023/11/12 14:49:13;;;;;;;0.10;0.10;;;15.10;90.90;;;;;;5020132;28;20036;-88
2023/11/12 14:51:43;;;;;;;0.20;0.20;;;15.10;90.80;;;;;;5020031;28;20022;-87
2023/11/12 14:54:10;;;;;;;0.20;0.20;;;15.20;90.80;;;;;;5014691;28;20545;-87
2023/11/12 14:56:37;;;;;;;0.10;0.10;;;15.20;90.70;;;;;;5020302;28;20030;-87
2023/11/12 14:59:06;;;;;;;0.20;0.20;;;15.30;90.50;;;;;;5019939;28;20026;-88
2023/11/12 15:01:33;;;;;;;0.10;0.10;;;15.20;90.50;;;;;;5019951;28;20029;-88
2023/11/12 15:03:59;;;;;;;0.10;0.10;;;15.20;90.30;;;;;;5001505;28;20025;-89
2023/11/12 15:06:24;;;;;;;0.10;0.10;;;15.20;90.40;;;;;;5017395;28;20073;-88
2023/11/12 15:08:50;;;;;;;0.20;0.20;;;15.20;90.40;;;;;;5002028;28;20026;-88
2023/11/12 15:11:17;;;;;;;0.20;0.20;;;15.10;90.30;;;;;;5002287;28;20045;-87
2023/11/12 15:13:42;;;;;;;0.22;0.22;;;15.10;90.30;;;;;;5019473;28;20025;-87
2023/11/12 15:16:09;;;;;;;0.10;0.10;;;15.10;90.30;;;;;;5020208;28;20033;-88
2023/11/12 15:18:35;;;;;;;0.10;0.10;;;15.10;90.00;;;;;;5039352;28;20079;-87
2023/11/12 15:21:06;;;;;;;0.10;0.10;;;15.10;89.80;;;;;;5039348;28;20033;-89
2023/11/12 15:23:32;;;;;;;0.10;0.10;;;15.10;89.90;;;;;;5016542;28;20397;-89
2023/11/12 15:25:58;;;;;;;0.20;0.20;;;15.10;89.80;;;;;;5002353;28;20026;-90
2023/11/12 15:28:28;;;;;;;0.20;0.20;;;15.00;89.40;;;;;;5002179;28;20439;-87
2023/11/12 15:30:55;;;;;;;0.10;0.10;;;15.10;89.10;;;;;;5018023;28;20181;-89
2023/11/12 15:33:21;;;;;;;0.20;0.20;;;15.00;89.20;;;;;;5015838;28;20400;-88
2023/11/12 15:35:49;;;;;;;0.10;0.10;;;15.00;89.20;;;;;;5019178;28;20109;-86
2023/11/12 15:38:15;;;;;;;0.20;0.20;;;15.00;88.80;;;;;;5015218;28;20022;-87
2023/11/12 15:40:40;;;;;;;0.17;0.17;;;15.00;89.00;;;;;;5011557;28;20391;-88
2023/11/12 15:43:07;;;;;;;0.17;0.17;;;15.00;88.80;;;;;;5017330;28;20014;-91
2023/11/12 15:45:33;;;;;;;0.10;0.10;;;14.90;88.70;;;;;;5002073;28;20022;-88
2023/11/12 15:47:59;;;;;;;0.10;0.10;;;14.80;87.90;;;;;;5019079;28;20037;-90
2023/11/12 15:50:29;;;;;;;0.20;0.20;;;14.80;88.50;;;;;;5018183;28;20033;-88
2023/11/12 15:52:56;;;;;;;0.10;0.10;;;14.80;88.60;;;;;;5023492;28;20025;-89
2023/11/12 15:55:22;;;;;;;0.20;0.20;;;14.80;88.40;;;;;;5021018;28;20030;-88
2023/11/12 15:57:48;;;;;;;0.10;0.10;;;14.70;88.20;;;;;;5032761;28;20026;-88
2023/11/12 16:00:17;;;;;;;0.10;0.10;;;14.60;88.40;;;;;;5018772;28;20022;-90
2023/11/12 16:02:44;;;;;;;0.15;0.15;;;14.70;88.40;;;;;;5017950;28;20088;-89
2023/11/12 16:05:10;;;;;;;0.10;0.10;;;14.60;88.50;;;;;;5018900;28;20459;-89
2023/11/12 16:07:35;;;;;;;0.20;0.20;;;14.50;88.40;;;;;;5018514;28;20021;-90
2023/11/12 16:10:04;;;;;;;0.10;0.10;;;14.50;88.50;;;;;;5017536;28;20468;-90
2023/11/12 16:12:30;;;;;;;0.20;0.20;;;14.50;88.70;;;;;;5017825;28;20551;-89
2023/11/12 16:14:56;;;;;;;0.20;0.20;;;14.50;88.50;;;;;;5017813;28;20028;-90
2023/11/12 16:17:22;;;;;;;0.20;0.20;;;14.40;88.60;;;;;;5018025;28;20041;-89
2023/11/12 16:19:47;;;;;;;0.20;0.20;;;14.40;88.20;;;;;;5016124;28;20041;-89
2023/11/12 16:22:13;;;;;;;0.10;0.10;;;14.40;88.60;;;;;;5018657;28;20030;-91
2023/11/12 16:24:39;;;;;;;0.20;0.20;;;14.30;88.20;;;;;;5017586;28;20030;-89
2023/11/12 16:27:07;;;;;;;0.10;0.10;;;14.30;88.00;;;;;;5006374;28;20030;-90
2023/11/12 16:29:34;;;;;;;0.17;0.17;;;14.30;88.20;;;;;;5001314;28;20121;-89
2023/11/12 16:32:11;;;;;;;0.10;0.10;;;14.30;88.20;;;;;;5017335;28;20054;-89
2023/11/12 16:34:37;;;;;;;0.20;0.20;;;14.20;88.00;;;;;;5014468;28;20088;-90
2023/11/12 16:37:03;;;;;;;0.10;0.10;;;14.20;88.10;;;;;;5018778;28;20026;-90
2023/11/12 16:39:39;;;;;;;0.17;0.17;;;14.10;87.90;;;;;;5000834;28;20040;-89
2023/11/12 16:42:05;;;;;;;0.17;0.17;;;14.20;88.10;;;;;;5010592;28;20030;-89
2023/11/12 16:44:31;;;;;;;0.10;0.10;;;14.10;88.20;;;;;;5000994;28;20435;-90
2023/11/12 16:46:57;;;;;;;0.10;0.10;;;14.10;88.00;;;;;;5001568;28;20053;-90
2023/11/12 16:49:22;;;;;;;0.10;0.10;;;14.00;88.20;;;;;;5000908;28;20029;-90
2023/11/12 16:51:48;;;;;;;0.20;0.20;;;14.00;88.00;;;;;;5008337;28;20021;-90
2023/11/12 16:54:14;;;;;;;0.10;0.10;;;14.00;88.00;;;;;;5017980;28;20036;-89
2023/11/12 16:56:40;;;;;;;0.20;0.20;;;14.00;88.00;;;;;;5017229;28;20029;-88
2023/11/12 16:59:06;;;;;;;0.30;0.20;;;14.00;87.90;;;;;;5011358;28;20034;-83
2023/11/12 17:01:32;;;;;;;0.20;0.20;;;14.00;87.90;;;;;;5030338;28;20030;-88
2023/11/12 17:03:57;;;;;;;0.20;0.20;;;14.00;87.80;;;;;;5031481;28;20022;-82
2023/11/12 17:06:29;;;;;;;0.10;0.10;;;14.00;87.70;;;;;;5013967;28;20409;-86
2023/11/12 17:08:57;;;;;;;0.10;0.10;;;14.00;87.70;;;;;;5017845;28;20022;-85
2023/11/12 17:11:23;;;;;;;0.13;0.13;;;14.00;87.80;;;;;;5033956;28;20108;-84
2023/11/12 17:13:52;;;;;;;0.17;0.17;;;14.00;87.90;;;;;;5035410;28;20068;-84
2023/11/12 17:16:17;;;;;;;0.20;0.20;;;14.00;87.70;;;;;;5017022;28;20021;-88
2023/11/12 17:18:43;;;;;;;0.10;0.10;;;14.00;87.50;;;;;;5036402;28;20079;-85
2023/11/12 17:21:09;;;;;;;0.10;0.10;;;14.00;87.50;;;;;;5018078;28;20141;-83
2023/11/12 17:23:34;;;;;;;0.10;0.10;;;14.00;87.60;;;;;;5035312;28;20025;-82
2023/11/12 17:26:00;;;;;;;0.20;0.20;;;14.00;87.90;;;;;;5036015;28;20028;-88
2023/11/12 17:28:26;;;;;;;0.10;0.10;;;14.00;87.80;;;;;;5017277;28;20028;-81
2023/11/12 17:30:52;;;;;;;0.20;0.20;;;14.00;88.00;;;;;;5026424;28;20049;-88
2023/11/12 17:33:17;;;;;;;0.10;0.10;;;14.00;87.80;;;;;;5015761;28;20025;-83
2023/11/12 17:35:46;;;;;;;0.10;0.10;;;14.10;87.70;;;;;;5015746;28;20608;-85
2023/11/12 17:38:12;;;;;;;0.10;0.10;;;14.00;87.90;;;;;;5015918;28;20033;-80
2023/11/12 17:40:42;;;;;;;0.10;0.10;;;14.10;87.80;;;;;;5034486;28;20071;-86
2023/11/12 17:43:10;;;;;;;0.30;0.17;;;14.00;87.60;;;;;;5016180;28;20045;-85
2023/11/12 17:45:40;;;;;;;0.20;0.20;;;14.00;87.50;;;;;;5016636;28;20030;-86
2023/11/12 17:48:42;;;;;;;0.20;0.20;;;14.00;87.60;;;;;;5016924;28;20120;-86
2023/11/12 17:51:09;;;;;;;0.10;0.10;;;14.10;87.90;;;;;;4935331;29;20035;-77
2023/11/12 17:53:36;;;;;;;0.20;0.20;;;14.10;87.70;;;;;;5015665;28;20068;-77
2023/11/12 17:56:03;;;;;;;0.10;0.10;;;14.00;87.50;;;;;;5032637;28;20060;-77
2023/11/12 17:58:29;;;;;;;0.20;0.20;;;14.00;87.70;;;;;;5033610;28;20693;-77
2023/11/12 18:00:58;;;;;;;0.20;0.20;;;14.00;87.60;;;;;;5024561;28;20535;-78
2023/11/12 18:03:27;;;;;;;0.10;0.10;;;14.00;87.40;;;;;;5035365;28;20127;-78
2023/11/12 18:05:53;;;;;;;0.10;0.10;;;14.00;87.60;;;;;;5014031;28;20438;-76
2023/11/12 18:08:19;;;;;;;0.20;0.20;;;14.00;88.00;;;;;;5032465;28;20033;-77
2023/11/12 18:10:45;;;;;;;0.20;0.20;;;14.00;88.10;;;;;;5032323;28;20298;-76
2023/11/12 18:13:15;;;;;;;0.20;0.20;;;14.00;87.90;;;;;;5035361;28;20018;-77
2023/11/12 18:15:48;;;;;;;0.10;0.10;;;14.00;87.90;;;;;;5016278;28;20036;-77
2023/11/12 18:18:16;;;;;;;0.10;0.10;;;14.00;87.90;;;;;;5034745;28;20487;-76
2023/11/12 18:20:42;;;;;;;0.13;0.13;;;14.00;88.00;;;;;;5034623;28;20693;-76